sensor_id;sensor_type;location;lat;lon;timestamp;pressure;altitude;pressure_sealevel;temperature;humidity
46886;BME280;32622;48.202;11.326;2022-08-16T00:01:40;1010.99;;;22.05;22.04
46886;BME280;32622;48.202;11.326;2022-08-16T00:03:46;1010.84;;;22.86;21.52
46886;BME280;32622;48.202;11.326;2022-08-16T00:05:50;1010.83;;;23.09;21.43
46886;BME280;32622;48.202;11.326;2022-08-16T00:07:55;1010.98;;;22.49;21.46
46886;BME280;32622;48.202;11.326;2022-08-16T00:10:00;1011.06;;;22.32;22.11
46886;BME280;32622;48.202;11.326;2022-08-16T00:12:04;1010.93;;;22.88;21.47
46886;BME280;32622;48.202;11.326;2022-08-16T00:14:14;1011.04;;;22.49;22.05
46886;BME280;32622;48.202;11.326;2022-08-16T00:16:20;1010.94;;;22.88;21.76
46886;BME280;32622;48.202;11.326;2022-08-16T00:18:26;1010.89;;;22.96;21.51
46886;BME280;32622;48.202;11.326;2022-08-16T00:20:31;1010.89;;;23.00;21.05
46886;BME280;32622;48.202;11.326;2022-08-16T00:22:36;1011.13;;;22.05;21.77
46886;BME280;32622;48.202;11.326;2022-08-16T00:24:42;1011.13;;;22.16;22.12
46886;BME280;32622;48.202;11.326;2022-08-16T00:26:46;1011.04;;;22.52;21.62
46886;BME280;32622;48.202;11.326;2022-08-16T00:28:50;1010.99;;;22.71;21.68
46886;BME280;32622;48.202;11.326;2022-08-16T00:30:54;1011.11;;;22.13;21.64
46886;BME280;32622;48.202;11.326;2022-08-16T00:32:59;1011.15;;;21.87;21.93
46886;BME280;32622;48.202;11.326;2022-08-16T00:35:04;1010.96;;;22.53;21.76
46886;BME280;32622;48.202;11.326;2022-08-16T00:37:08;1010.82;;;22.97;21.30
46886;BME280;32622;48.202;11.326;2022-08-16T00:39:14;1010.81;;;22.95;21.27
46886;BME280;32622;48.202;11.326;2022-08-16T00:41:19;1010.78;;;23.22;21.10
46886;BME280;32622;48.202;11.326;2022-08-16T00:43:26;1010.86;;;22.79;21.61
46886;BME280;32622;48.202;11.326;2022-08-16T00:45:35;1010.85;;;22.88;21.63
46886;BME280;32622;48.202;11.326;2022-08-16T00:47:44;1010.91;;;22.84;21.26
46886;BME280;32622;48.202;11.326;2022-08-16T00:49:49;1010.90;;;23.00;21.11
46886;BME280;32622;48.202;11.326;2022-08-16T00:51:53;1010.80;;;23.44;21.14
46886;BME280;32622;48.202;11.326;2022-08-16T00:53:58;1010.95;;;22.74;21.01
46886;BME280;32622;48.202;11.326;2022-08-16T00:56:20;1010.94;;;22.73;21.53
46886;BME280;32622;48.202;11.326;2022-08-16T00:58:28;1011.14;;;21.85;22.11
46886;BME280;32622;48.202;11.326;2022-08-16T01:00:33;1011.08;;;22.14;21.76
46886;BME280;32622;48.202;11.326;2022-08-16T01:02:38;1010.98;;;22.60;21.61
46886;BME280;32622;48.202;11.326;2022-08-16T01:04:41;1011.02;;;22.56;21.82
46886;BME280;32622;48.202;11.326;2022-08-16T01:06:45;1011.02;;;22.79;21.72
46886;BME280;32622;48.202;11.326;2022-08-16T01:08:51;1010.98;;;23.14;21.20
46886;BME280;32622;48.202;11.326;2022-08-16T01:10:57;1011.15;;;22.35;21.86
46886;BME280;32622;48.202;11.326;2022-08-16T01:13:04;1010.90;;;23.32;21.44
46886;BME280;32622;48.202;11.326;2022-08-16T01:15:09;1010.90;;;23.14;21.15
46886;BME280;32622;48.202;11.326;2022-08-16T01:17:15;1011.14;;;21.85;21.74
46886;BME280;32622;48.202;11.326;2022-08-16T01:19:27;1011.15;;;22.00;22.17
46886;BME280;32622;48.202;11.326;2022-08-16T01:21:40;1011.19;;;21.75;22.61
46886;BME280;32622;48.202;11.326;2022-08-16T01:23:54;1011.14;;;21.98;22.33
46886;BME280;32622;48.202;11.326;2022-08-16T01:26:01;1011.12;;;21.94;22.28
46886;BME280;32622;48.202;11.326;2022-08-16T01:28:08;1011.17;;;21.49;22.55
46886;BME280;32622;48.202;11.326;2022-08-16T01:30:15;1010.96;;;22.35;21.94
46886;BME280;32622;48.202;11.326;2022-08-16T01:32:21;1010.77;;;23.12;21.42
46886;BME280;32622;48.202;11.326;2022-08-16T01:34:26;1010.75;;;23.21;21.33
46886;BME280;32622;48.202;11.326;2022-08-16T01:36:32;1010.83;;;22.91;21.42
46886;BME280;32622;48.202;11.326;2022-08-16T01:38:38;1010.77;;;23.18;21.44
46886;BME280;32622;48.202;11.326;2022-08-16T01:40:42;1010.76;;;23.45;21.24
46886;BME280;32622;48.202;11.326;2022-08-16T01:42:48;1010.81;;;23.24;21.10
46886;BME280;32622;48.202;11.326;2022-08-16T01:44:52;1011.00;;;22.18;22.25
46886;BME280;32622;48.202;11.326;2022-08-16T01:46:55;1011.01;;;22.00;22.24
46886;BME280;32622;48.202;11.326;2022-08-16T01:49:10;1011.02;;;21.91;22.59
46886;BME280;32622;48.202;11.326;2022-08-16T01:51:17;1010.91;;;22.19;22.37
46886;BME280;32622;48.202;11.326;2022-08-16T01:53:24;1010.92;;;22.27;22.57
46886;BME280;32622;48.202;11.326;2022-08-16T01:55:29;1010.95;;;22.14;22.35
46886;BME280;32622;48.202;11.326;2022-08-16T01:57:33;1011.01;;;22.01;22.72
46886;BME280;32622;48.202;11.326;2022-08-16T01:59:39;1011.05;;;21.72;22.96
46886;BME280;32622;48.202;11.326;2022-08-16T02:01:44;1010.96;;;22.17;22.53
46886;BME280;32622;48.202;11.326;2022-08-16T02:03:48;1010.85;;;22.46;22.13
46886;BME280;32622;48.202;11.326;2022-08-16T02:05:53;1010.98;;;21.73;22.95
46886;BME280;32622;48.202;11.326;2022-08-16T02:07:58;1010.85;;;22.30;22.57
46886;BME280;32622;48.202;11.326;2022-08-16T02:10:03;1010.82;;;22.39;22.56
46886;BME280;32622;48.202;11.326;2022-08-16T02:12:07;1010.76;;;22.53;22.13
46886;BME280;32622;48.202;11.326;2022-08-16T02:14:12;1010.77;;;22.44;22.11
46886;BME280;32622;48.202;11.326;2022-08-16T02:16:17;1010.79;;;22.24;22.30
46886;BME280;32622;48.202;11.326;2022-08-16T02:18:23;1010.72;;;22.38;22.55
46886;BME280;32622;48.202;11.326;2022-08-16T02:20:29;1010.61;;;22.59;22.16
46886;BME280;32622;48.202;11.326;2022-08-16T02:22:35;1010.81;;;21.78;22.91
46886;BME280;32622;48.202;11.326;2022-08-16T02:24:44;1010.72;;;22.20;22.47
46886;BME280;32622;48.202;11.326;2022-08-16T02:26:49;1010.67;;;22.38;22.37
46886;BME280;32622;48.202;11.326;2022-08-16T02:28:53;1010.53;;;22.77;22.10
46886;BME280;32622;48.202;11.326;2022-08-16T02:31:03;1010.60;;;22.41;22.38
46886;BME280;32622;48.202;11.326;2022-08-16T02:33:07;1010.63;;;22.26;22.50
46886;BME280;32622;48.202;11.326;2022-08-16T02:35:12;1010.80;;;21.41;23.41
46886;BME280;32622;48.202;11.326;2022-08-16T02:37:15;1010.82;;;21.30;23.30
46886;BME280;32622;48.202;11.326;2022-08-16T02:39:20;1010.85;;;21.19;23.18
46886;BME280;32622;48.202;11.326;2022-08-16T02:41:23;1010.65;;;22.20;23.09
46886;BME280;32622;48.202;11.326;2022-08-16T02:43:29;1010.62;;;22.55;22.71
46886;BME280;32622;48.202;11.326;2022-08-16T02:45:34;1010.85;;;21.51;22.78
46886;BME280;32622;48.202;11.326;2022-08-16T02:47:38;1010.72;;;22.17;22.52
46886;BME280;32622;48.202;11.326;2022-08-16T02:49:42;1010.64;;;22.36;22.16
46886;BME280;32622;48.202;11.326;2022-08-16T02:51:45;1010.70;;;22.27;22.29
46886;BME280;32622;48.202;11.326;2022-08-16T02:53:50;1010.72;;;22.23;22.36
46886;BME280;32622;48.202;11.326;2022-08-16T02:55:53;1010.72;;;22.39;22.55
46886;BME280;32622;48.202;11.326;2022-08-16T02:57:57;1010.66;;;22.49;22.53
46886;BME280;32622;48.202;11.326;2022-08-16T03:00:06;1010.77;;;22.00;22.69
46886;BME280;32622;48.202;11.326;2022-08-16T03:02:10;1010.70;;;22.27;22.75
46886;BME280;32622;48.202;11.326;2022-08-16T03:04:13;1010.83;;;21.68;23.59
46886;BME280;32622;48.202;11.326;2022-08-16T03:06:17;1011.09;;;20.55;23.92
46886;BME280;32622;48.202;11.326;2022-08-16T03:08:24;1011.27;;;19.76;24.87
46886;BME280;32622;48.202;11.326;2022-08-16T03:10:28;1011.12;;;20.44;24.53
46886;BME280;32622;48.202;11.326;2022-08-16T03:12:31;1011.07;;;20.56;24.44
46886;BME280;32622;48.202;11.326;2022-08-16T03:14:36;1011.01;;;20.95;24.07
46886;BME280;32622;48.202;11.326;2022-08-16T03:16:41;1010.98;;;20.87;24.07
46886;BME280;32622;48.202;11.326;2022-08-16T03:18:46;1010.87;;;21.32;24.13
46886;BME280;32622;48.202;11.326;2022-08-16T03:20:52;1010.86;;;21.25;23.53
46886;BME280;32622;48.202;11.326;2022-08-16T03:22:57;1010.94;;;20.95;23.51
46886;BME280;32622;48.202;11.326;2022-08-16T03:25:06;1010.95;;;21.04;23.38
46886;BME280;32622;48.202;11.326;2022-08-16T03:27:15;1010.95;;;21.22;23.53
46886;BME280;32622;48.202;11.326;2022-08-16T03:29:21;1011.00;;;21.08;23.70
46886;BME280;32622;48.202;11.326;2022-08-16T03:31:25;1011.02;;;21.07;23.98
46886;BME280;32622;48.202;11.326;2022-08-16T03:33:30;1011.24;;;20.19;24.39
46886;BME280;32622;48.202;11.326;2022-08-16T03:35:36;1011.09;;;20.95;23.71
46886;BME280;32622;48.202;11.326;2022-08-16T03:37:44;1011.13;;;20.97;23.55
46886;BME280;32622;48.202;11.326;2022-08-16T03:39:47;1011.18;;;20.85;23.28
46886;BME280;32622;48.202;11.326;2022-08-16T03:41:51;1011.26;;;20.46;23.65
46886;BME280;32622;48.202;11.326;2022-08-16T03:43:55;1011.44;;;19.80;24.02
46886;BME280;32622;48.202;11.326;2022-08-16T03:45:58;1011.35;;;20.10;23.51
46886;BME280;32622;48.202;11.326;2022-08-16T03:48:04;1011.13;;;21.09;22.93
46886;BME280;32622;48.202;11.326;2022-08-16T03:50:09;1011.24;;;20.33;23.16
46886;BME280;32622;48.202;11.326;2022-08-16T03:52:12;1011.29;;;20.14;23.33
46886;BME280;32622;48.202;11.326;2022-08-16T03:54:15;1011.20;;;20.55;22.68
46886;BME280;32622;48.202;11.326;2022-08-16T03:56:18;1011.19;;;20.73;22.94
46886;BME280;32622;48.202;11.326;2022-08-16T03:58:22;1011.22;;;20.62;22.91
46886;BME280;32622;48.202;11.326;2022-08-16T04:00:28;1011.31;;;20.11;23.10
46886;BME280;32622;48.202;11.326;2022-08-16T04:02:31;1011.18;;;20.56;22.64
46886;BME280;32622;48.202;11.326;2022-08-16T04:04:35;1011.35;;;19.66;23.30
46886;BME280;32622;48.202;11.326;2022-08-16T04:06:38;1011.25;;;20.13;23.25
46886;BME280;32622;48.202;11.326;2022-08-16T04:08:41;1011.31;;;19.91;23.17
46886;BME280;32622;48.202;11.326;2022-08-16T04:10:45;1011.28;;;19.96;23.35
46886;BME280;32622;48.202;11.326;2022-08-16T04:12:48;1011.32;;;20.04;22.88
46886;BME280;32622;48.202;11.326;2022-08-16T04:14:51;1011.31;;;19.95;22.98
46886;BME280;32622;48.202;11.326;2022-08-16T04:16:55;1011.48;;;19.24;23.54
46886;BME280;32622;48.202;11.326;2022-08-16T04:18:58;1011.58;;;18.64;24.26
46886;BME280;32622;48.202;11.326;2022-08-16T04:21:01;1011.44;;;19.15;23.82
46886;BME280;32622;48.202;11.326;2022-08-16T04:23:05;1011.40;;;19.25;23.91
46886;BME280;32622;48.202;11.326;2022-08-16T04:25:10;1011.43;;;19.22;23.89
46886;BME280;32622;48.202;11.326;2022-08-16T04:27:14;1011.36;;;19.64;23.23
46886;BME280;32622;48.202;11.326;2022-08-16T04:29:17;1011.33;;;19.93;23.43
46886;BME280;32622;48.202;11.326;2022-08-16T04:31:20;1011.45;;;19.41;23.71
46886;BME280;32622;48.202;11.326;2022-08-16T04:33:24;1011.49;;;19.46;24.15
46886;BME280;32622;48.202;11.326;2022-08-16T04:35:27;1011.58;;;18.98;24.37
46886;BME280;32622;48.202;11.326;2022-08-16T04:37:30;1011.39;;;19.83;23.79
46886;BME280;32622;48.202;11.326;2022-08-16T04:39:34;1011.36;;;19.86;23.51
46886;BME280;32622;48.202;11.326;2022-08-16T04:41:38;1011.31;;;20.19;23.29
46886;BME280;32622;48.202;11.326;2022-08-16T04:43:41;1011.21;;;20.74;22.98
46886;BME280;32622;48.202;11.326;2022-08-16T04:45:45;1011.19;;;20.95;22.88
46886;BME280;32622;48.202;11.326;2022-08-16T04:47:48;1011.11;;;21.38;22.66
46886;BME280;32622;48.202;11.326;2022-08-16T04:49:52;1011.20;;;21.13;22.54
46886;BME280;32622;48.202;11.326;2022-08-16T04:51:55;1011.20;;;21.15;23.02
46886;BME280;32622;48.202;11.326;2022-08-16T04:53:58;1011.40;;;20.11;23.55
46886;BME280;32622;48.202;11.326;2022-08-16T04:56:02;1011.47;;;19.81;23.96
46886;BME280;32622;48.202;11.326;2022-08-16T04:58:07;1011.45;;;19.86;23.84
46886;BME280;32622;48.202;11.326;2022-08-16T05:00:13;1011.54;;;19.48;24.03
46886;BME280;32622;48.202;11.326;2022-08-16T05:02:17;1011.47;;;19.67;23.61
46886;BME280;32622;48.202;11.326;2022-08-16T05:04:20;1011.43;;;20.09;23.36
46886;BME280;32622;48.202;11.326;2022-08-16T05:06:23;1011.33;;;20.60;22.83
46886;BME280;32622;48.202;11.326;2022-08-16T05:08:27;1011.34;;;20.82;22.37
46886;BME280;32622;48.202;11.326;2022-08-16T05:10:31;1011.17;;;21.73;22.00
46886;BME280;32622;48.202;11.326;2022-08-16T05:12:35;1011.27;;;21.19;22.10
46886;BME280;32622;48.202;11.326;2022-08-16T05:14:38;1011.11;;;21.85;21.69
46886;BME280;32622;48.202;11.326;2022-08-16T05:16:41;1011.24;;;21.20;21.49
46886;BME280;32622;48.202;11.326;2022-08-16T05:18:45;1011.18;;;21.67;21.74
46886;BME280;32622;48.202;11.326;2022-08-16T05:20:48;1011.24;;;21.37;21.79
46886;BME280;32622;48.202;11.326;2022-08-16T05:22:51;1011.12;;;21.99;21.27
46886;BME280;32622;48.202;11.326;2022-08-16T05:24:54;1011.05;;;22.32;20.76
46886;BME280;32622;48.202;11.326;2022-08-16T05:26:57;1010.99;;;22.68;20.52
46886;BME280;32622;48.202;11.326;2022-08-16T05:29:00;1011.02;;;22.70;20.31
46886;BME280;32622;48.202;11.326;2022-08-16T05:31:11;1010.98;;;22.94;20.23
46886;BME280;32622;48.202;11.326;2022-08-16T05:33:14;1010.97;;;23.21;20.02
46886;BME280;32622;48.202;11.326;2022-08-16T05:35:17;1011.07;;;22.81;20.15
46886;BME280;32622;48.202;11.326;2022-08-16T05:37:21;1011.07;;;23.05;19.71
46886;BME280;32622;48.202;11.326;2022-08-16T05:39:26;1011.08;;;23.10;19.66
46886;BME280;32622;48.202;11.326;2022-08-16T05:41:29;1011.01;;;23.34;19.80
46886;BME280;32622;48.202;11.326;2022-08-16T05:43:32;1011.03;;;23.07;19.81
46886;BME280;32622;48.202;11.326;2022-08-16T05:45:35;1011.00;;;23.17;19.69
46886;BME280;32622;48.202;11.326;2022-08-16T05:47:39;1010.75;;;24.21;19.07
46886;BME280;32622;48.202;11.326;2022-08-16T05:49:42;1010.59;;;24.98;18.66
46886;BME280;32622;48.202;11.326;2022-08-16T05:51:46;1010.61;;;24.83;18.33
46886;BME280;32622;48.202;11.326;2022-08-16T05:53:49;1010.60;;;25.05;18.35
46886;BME280;32622;48.202;11.326;2022-08-16T05:55:52;1010.53;;;25.52;18.03
46886;BME280;32622;48.202;11.326;2022-08-16T05:57:55;1010.52;;;25.56;18.07
46886;BME280;32622;48.202;11.326;2022-08-16T05:59:58;1010.45;;;25.91;17.84
46886;BME280;32622;48.202;11.326;2022-08-16T06:02:02;1010.61;;;25.16;17.73
46886;BME280;32622;48.202;11.326;2022-08-16T06:04:06;1010.37;;;26.54;17.49
46886;BME280;32622;48.202;11.326;2022-08-16T06:06:09;1010.43;;;26.31;17.33
46886;BME280;32622;48.202;11.326;2022-08-16T06:08:12;1010.38;;;26.44;16.94
46886;BME280;32622;48.202;11.326;2022-08-16T06:10:16;1010.37;;;26.45;16.71
46886;BME280;32622;48.202;11.326;2022-08-16T06:12:20;1010.38;;;26.31;16.69
46886;BME280;32622;48.202;11.326;2022-08-16T06:14:23;1010.26;;;27.11;16.58
46886;BME280;32622;48.202;11.326;2022-08-16T06:16:26;1010.20;;;27.29;16.30
46886;BME280;32622;48.202;11.326;2022-08-16T06:18:29;1010.31;;;26.74;15.98
46886;BME280;32622;48.202;11.326;2022-08-16T06:20:33;1010.25;;;26.97;16.02
46886;BME280;32622;48.202;11.326;2022-08-16T06:22:37;1010.24;;;27.14;16.14
46886;BME280;32622;48.202;11.326;2022-08-16T06:24:40;1010.48;;;25.99;16.32
46886;BME280;32622;48.202;11.326;2022-08-16T06:26:43;1010.36;;;26.71;16.13
46886;BME280;32622;48.202;11.326;2022-08-16T06:28:46;1010.41;;;26.46;16.11
46886;BME280;32622;48.202;11.326;2022-08-16T06:30:50;1010.24;;;27.41;15.97
46886;BME280;32622;48.202;11.326;2022-08-16T06:32:53;1010.09;;;28.02;15.29
46886;BME280;32622;48.202;11.326;2022-08-16T06:34:56;1009.98;;;28.64;15.35
46886;BME280;32622;48.202;11.326;2022-08-16T06:37:00;1010.08;;;28.22;15.45
46886;BME280;32622;48.202;11.326;2022-08-16T06:39:03;1010.00;;;28.71;15.41
46886;BME280;32622;48.202;11.326;2022-08-16T06:41:13;1010.01;;;28.49;15.21
46886;BME280;32622;48.202;11.326;2022-08-16T06:43:17;1010.00;;;28.69;14.94
46886;BME280;32622;48.202;11.326;2022-08-16T06:45:20;1010.05;;;28.46;14.91
46886;BME280;32622;48.202;11.326;2022-08-16T06:47:24;1009.84;;;29.27;14.65
46886;BME280;32622;48.202;11.326;2022-08-16T06:49:27;1009.93;;;29.05;14.89
46886;BME280;32622;48.202;11.326;2022-08-16T06:51:31;1009.93;;;29.19;14.77
46886;BME280;32622;48.202;11.326;2022-08-16T06:53:34;1009.78;;;30.09;14.24
46886;BME280;32622;48.202;11.326;2022-08-16T06:55:37;1009.89;;;29.57;14.41
46886;BME280;32622;48.202;11.326;2022-08-16T06:57:40;1009.85;;;29.77;14.10
46886;BME280;32622;48.202;11.326;2022-08-16T06:59:44;1009.75;;;29.92;14.20
46886;BME280;32622;48.202;11.326;2022-08-16T07:01:48;1009.67;;;30.19;14.22
46886;BME280;32622;48.202;11.326;2022-08-16T07:03:51;1009.73;;;29.63;14.15
46886;BME280;32622;48.202;11.326;2022-08-16T07:05:55;1009.66;;;29.91;14.28
46886;BME280;32622;48.202;11.326;2022-08-16T07:07:59;1009.60;;;30.30;14.02
46886;BME280;32622;48.202;11.326;2022-08-16T07:10:04;1009.70;;;29.89;14.21
46886;BME280;32622;48.202;11.326;2022-08-16T07:12:08;1009.68;;;29.85;14.15
46886;BME280;32622;48.202;11.326;2022-08-16T07:14:11;1009.75;;;29.87;14.26
46886;BME280;32622;48.202;11.326;2022-08-16T07:16:15;1009.84;;;29.29;13.93
46886;BME280;32622;48.202;11.326;2022-08-16T07:18:19;1009.66;;;30.07;13.94
46886;BME280;32622;48.202;11.326;2022-08-16T07:20:23;1009.63;;;30.08;13.76
46886;BME280;32622;48.202;11.326;2022-08-16T07:22:26;1009.70;;;29.79;14.20
46886;BME280;32622;48.202;11.326;2022-08-16T07:24:30;1009.72;;;29.72;13.92
46886;BME280;32622;48.202;11.326;2022-08-16T07:26:33;1009.71;;;29.82;14.58
46886;BME280;32622;48.202;11.326;2022-08-16T07:28:36;1009.57;;;30.45;13.57
46886;BME280;32622;48.202;11.326;2022-08-16T07:30:41;1009.58;;;30.26;13.74
46886;BME280;32622;48.202;11.326;2022-08-16T07:32:44;1009.52;;;30.51;13.51
46886;BME280;32622;48.202;11.326;2022-08-16T07:34:48;1009.54;;;30.36;12.96
46886;BME280;32622;48.202;11.326;2022-08-16T07:36:51;1009.66;;;29.70;13.31
46886;BME280;32622;48.202;11.326;2022-08-16T07:38:54;1009.48;;;30.64;13.15
46886;BME280;32622;48.202;11.326;2022-08-16T07:40:58;1009.26;;;31.42;12.95
46886;BME280;32622;48.202;11.326;2022-08-16T07:43:01;1009.18;;;31.80;12.83
46886;BME280;32622;48.202;11.326;2022-08-16T07:45:05;1009.41;;;30.77;12.84
46886;BME280;32622;48.202;11.326;2022-08-16T07:47:09;1009.63;;;29.88;12.87
46886;BME280;32622;48.202;11.326;2022-08-16T07:49:12;1009.50;;;30.57;12.52
46886;BME280;32622;48.202;11.326;2022-08-16T07:51:15;1009.68;;;29.75;12.45
46886;BME280;32622;48.202;11.326;2022-08-16T07:53:19;1009.38;;;31.29;11.64
46886;BME280;32622;48.202;11.326;2022-08-16T07:55:22;1009.40;;;31.04;12.45
46886;BME280;32622;48.202;11.326;2022-08-16T07:57:27;1009.25;;;32.06;12.34
46886;BME280;32622;48.202;11.326;2022-08-16T07:59:30;1009.34;;;31.75;12.29
46886;BME280;32622;48.202;11.326;2022-08-16T08:01:34;1009.34;;;31.75;12.17
46886;BME280;32622;48.202;11.326;2022-08-16T08:03:37;1009.26;;;32.22;12.16
46886;BME280;32622;48.202;11.326;2022-08-16T08:05:41;1009.20;;;32.52;12.06
46886;BME280;32622;48.202;11.326;2022-08-16T08:07:44;1009.11;;;32.93;11.73
46886;BME280;32622;48.202;11.326;2022-08-16T08:09:48;1009.10;;;33.03;11.59
46886;BME280;32622;48.202;11.326;2022-08-16T08:11:51;1009.01;;;33.58;11.50
46886;BME280;32622;48.202;11.326;2022-08-16T08:13:56;1008.98;;;33.74;11.42
46886;BME280;32622;48.202;11.326;2022-08-16T08:16:00;1009.04;;;33.65;11.13
46886;BME280;32622;48.202;11.326;2022-08-16T08:18:04;1009.05;;;33.56;11.79
46886;BME280;32622;48.202;11.326;2022-08-16T08:20:11;1008.99;;;33.88;11.32
46886;BME280;32622;48.202;11.326;2022-08-16T08:22:15;1008.93;;;34.23;10.93
46886;BME280;32622;48.202;11.326;2022-08-16T08:24:19;1009.06;;;33.75;10.75
46886;BME280;32622;48.202;11.326;2022-08-16T08:26:23;1008.97;;;34.12;10.56
46886;BME280;32622;48.202;11.326;2022-08-16T08:28:26;1009.06;;;33.66;10.99
46886;BME280;32622;48.202;11.326;2022-08-16T08:30:30;1009.08;;;33.59;10.64
46886;BME280;32622;48.202;11.326;2022-08-16T08:32:33;1009.00;;;33.95;10.63
46886;BME280;32622;48.202;11.326;2022-08-16T08:34:36;1008.89;;;34.47;10.66
46886;BME280;32622;48.202;11.326;2022-08-16T08:36:39;1008.97;;;33.97;10.59
46886;BME280;32622;48.202;11.326;2022-08-16T08:38:43;1008.84;;;34.20;10.84
46886;BME280;32622;48.202;11.326;2022-08-16T08:40:46;1008.77;;;34.55;10.41
46886;BME280;32622;48.202;11.326;2022-08-16T08:42:49;1008.79;;;34.45;10.65
46886;BME280;32622;48.202;11.326;2022-08-16T08:44:52;1008.97;;;33.75;10.64
46886;BME280;32622;48.202;11.326;2022-08-16T08:46:55;1008.93;;;34.00;10.43
46886;BME280;32622;48.202;11.326;2022-08-16T08:48:58;1008.89;;;34.23;10.75
46886;BME280;32622;48.202;11.326;2022-08-16T08:51:08;1008.94;;;33.99;10.31
46886;BME280;32622;48.202;11.326;2022-08-16T08:53:11;1008.81;;;34.53;10.40
46886;BME280;32622;48.202;11.326;2022-08-16T08:55:15;1008.68;;;35.30;10.07
46886;BME280;32622;48.202;11.326;2022-08-16T08:57:19;1008.69;;;35.08;9.57
46886;BME280;32622;48.202;11.326;2022-08-16T08:59:22;1008.74;;;34.89;10.18
46886;BME280;32622;48.202;11.326;2022-08-16T09:01:29;1008.92;;;34.12;10.25
46886;BME280;32622;48.202;11.326;2022-08-16T09:03:33;1008.91;;;34.20;10.30
46886;BME280;32622;48.202;11.326;2022-08-16T09:05:36;1008.72;;;35.06;10.02
46886;BME280;32622;48.202;11.326;2022-08-16T09:07:39;1009.19;;;33.14;10.95
46886;BME280;32622;48.202;11.326;2022-08-16T09:09:42;1009.13;;;33.33;10.56
46886;BME280;32622;48.202;11.326;2022-08-16T09:11:46;1008.90;;;34.27;10.59
46886;BME280;32622;48.202;11.326;2022-08-16T09:13:49;1008.73;;;34.93;9.78
46886;BME280;32622;48.202;11.326;2022-08-16T09:15:54;1008.79;;;34.65;9.76
46886;BME280;32622;48.202;11.326;2022-08-16T09:17:57;1008.67;;;35.35;9.81
46886;BME280;32622;48.202;11.326;2022-08-16T09:20:00;1008.68;;;35.23;9.60
46886;BME280;32622;48.202;11.326;2022-08-16T09:22:04;1008.64;;;35.20;9.36
46886;BME280;32622;48.202;11.326;2022-08-16T09:24:08;1008.63;;;35.16;9.68
46886;BME280;32622;48.202;11.326;2022-08-16T09:26:15;1008.59;;;35.24;9.60
46886;BME280;32622;48.202;11.326;2022-08-16T09:28:19;1008.66;;;34.73;9.36
46886;BME280;32622;48.202;11.326;2022-08-16T09:30:22;1009.12;;;32.62;10.30
46886;BME280;32622;48.202;11.326;2022-08-16T09:32:26;1008.73;;;34.46;10.29
46886;BME280;32622;48.202;11.326;2022-08-16T09:34:29;1008.83;;;34.27;10.10
46886;BME280;32622;48.202;11.326;2022-08-16T09:36:32;1008.80;;;34.43;10.45
46886;BME280;32622;48.202;11.326;2022-08-16T09:38:36;1008.90;;;33.62;10.09
46886;BME280;32622;48.202;11.326;2022-08-16T09:40:40;1009.06;;;32.88;10.04
46886;BME280;32622;48.202;11.326;2022-08-16T09:42:44;1008.73;;;34.31;10.17
46886;BME280;32622;48.202;11.326;2022-08-16T09:44:47;1008.96;;;33.33;10.36
46886;BME280;32622;48.202;11.326;2022-08-16T09:46:51;1008.85;;;33.82;10.11
46886;BME280;32622;48.202;11.326;2022-08-16T09:48:54;1008.90;;;33.70;10.27
46886;BME280;32622;48.202;11.326;2022-08-16T09:50:57;1008.89;;;33.96;10.33
46886;BME280;32622;48.202;11.326;2022-08-16T09:53:02;1008.76;;;34.40;10.30
46886;BME280;32622;48.202;11.326;2022-08-16T09:55:07;1008.76;;;34.20;10.05
46886;BME280;32622;48.202;11.326;2022-08-16T09:57:11;1008.89;;;33.69;10.53
46886;BME280;32622;48.202;11.326;2022-08-16T09:59:15;1008.73;;;34.46;10.24
46886;BME280;32622;48.202;11.326;2022-08-16T10:01:21;1008.88;;;33.65;10.15
46886;BME280;32622;48.202;11.326;2022-08-16T10:03:25;1008.99;;;33.12;10.03
46886;BME280;32622;48.202;11.326;2022-08-16T10:05:28;1008.87;;;33.62;10.07
46886;BME280;32622;48.202;11.326;2022-08-16T10:07:31;1008.74;;;34.20;9.91
46886;BME280;32622;48.202;11.326;2022-08-16T10:09:35;1008.73;;;34.00;10.07
46886;BME280;32622;48.202;11.326;2022-08-16T10:11:38;1008.94;;;32.85;10.40
46886;BME280;32622;48.202;11.326;2022-08-16T10:13:42;1008.89;;;33.33;10.74
46886;BME280;32622;48.202;11.326;2022-08-16T10:15:46;1008.90;;;33.21;10.16
46886;BME280;32622;48.202;11.326;2022-08-16T10:17:52;1008.74;;;33.74;9.95
46886;BME280;32622;48.202;11.326;2022-08-16T10:19:56;1008.81;;;33.66;10.56
46886;BME280;32622;48.202;11.326;2022-08-16T10:21:59;1008.86;;;33.31;10.28
46886;BME280;32622;48.202;11.326;2022-08-16T10:24:03;1008.77;;;33.88;10.23
46886;BME280;32622;48.202;11.326;2022-08-16T10:26:06;1008.66;;;34.00;9.85
46886;BME280;32622;48.202;11.326;2022-08-16T10:28:10;1008.59;;;34.22;9.70
46886;BME280;32622;48.202;11.326;2022-08-16T10:30:18;1008.79;;;33.41;9.98
46886;BME280;32622;48.202;11.326;2022-08-16T10:32:22;1008.66;;;33.96;10.41
46886;BME280;32622;48.202;11.326;2022-08-16T10:34:25;1009.16;;;31.55;10.68
46886;BME280;32622;48.202;11.326;2022-08-16T10:36:28;1009.32;;;30.70;11.20
46886;BME280;32622;48.202;11.326;2022-08-16T10:38:33;1008.91;;;32.68;10.92
46886;BME280;32622;48.202;11.326;2022-08-16T10:40:37;1008.84;;;33.01;10.23
46886;BME280;32622;48.202;11.326;2022-08-16T10:42:40;1008.81;;;33.27;10.27
46886;BME280;32622;48.202;11.326;2022-08-16T10:44:43;1009.11;;;31.66;10.67
46886;BME280;32622;48.202;11.326;2022-08-16T10:46:47;1009.20;;;31.45;11.04
46886;BME280;32622;48.202;11.326;2022-08-16T10:48:52;1009.22;;;31.20;11.30
46886;BME280;32622;48.202;11.326;2022-08-16T10:50:56;1009.16;;;31.47;11.72
46886;BME280;32622;48.202;11.326;2022-08-16T10:53:00;1009.33;;;30.16;12.30
46886;BME280;32622;48.202;11.326;2022-08-16T10:55:05;1009.10;;;31.36;11.94
46886;BME280;32622;48.202;11.326;2022-08-16T10:57:08;1008.94;;;32.21;11.44
46886;BME280;32622;48.202;11.326;2022-08-16T10:59:11;1008.95;;;32.12;11.43